Union, NE (68455)

1:35 PM CDT on September 23, 2019 (GMT -0500)
Lake Waconda | | Change Station
Active Advisory: Flood Warning

Elev 942 ft 40.85 °N, 95.85 °W | Updated 11 seconds ago

Clear
Clear
80.4 °F
Feels Like 81 °F
N
0.9
Wind Variable Wind from SW
Gusts 5.0 mph

Today
High -- | Low -- °F
--% Chance of Precip.
Yesterday
High -- | Low -- °F
Precip. -- in
Pressure 30.06 in
Visibility 10.0 miles
Clouds Clear
Heat Index 81 °F
Dew Point 62 °F
Humidity 53%
Rainfall 0.01 in
Snow Depth Not available.
7:12 AM 7:19 PM
Waning Crescent, 32% visible
METAR KPMV 231815Z AUTO 19009KT 10SM CLR 25/16 A3006 RMK AO2 T02480164
Pressure 30.06 in
Visibility 10.0 miles
Clouds Clear
Heat Index 81 °F
Dew Point 62 °F
Humidity 53%
Rainfall 0.01 in
Snow Depth Not available.
7:12 AM 7:19 PM
Waning Crescent, 32% visible
METAR KPMV 231815Z AUTO 19009KT 10SM CLR 25/16 A3006 RMK AO2 T02480164

Get Your Daily Forecast Email!

Thanks for signing up!

Be on the lookout for a verification email in your inbox.

You'll start receiving severe weather alerts in your inbox..

×

10-Day Weather Forecast

Almanac

Astronomy

Sep. 23, 2019 Rise Set
Actual Time
Civil Twilight
Nautical Twilight
Astronomical Twilight
Moon
Length of Visible Light
Length of Day
Tomorrow will be .
, % of the Moon is Illuminated

Today's Extremes

State Highs State Lows

Community

WunderPhotos

Category 6

Welcome to Category 6. This is the collective home for Weather Underground's featured writeups by Dr. Jeff Masters (right), Bob Henson (left), Chris Burt, and other regular contributors.

Nearby

Air Quality

  Air Quality AQ Index Pollutant
Not available.

Snow Depth

Station Depth Elevation

Earthquake Activity

City Distance Mag. Time & Date
Minimum magnitude displayed is 2.5.

Coastal Water Temperatures

Place Temperature

Stations

Nearby Weather Stations

Station Location Temp. Windchill Dew Point Humidity Wind Precip. Elev Updated Type
                   

Watches & Warnings

Flood Warning
Issued: 10:04 AM CDT Sep. 23, 2019 – National Weather Service

The Flood Warning continues for
the Missouri River at Plattsmouth.
* At 9:15 am Monday the stage was 30.2 feet... or 4.2 feet above
flood stage.
* Flood stage is 26.0 feet.
* Minor flooding is occurring and minor flooding is forecast.
* Forecast... the river will continue to fall to a stage of 29.9 feet
by tomorrow morning.



Lat... Lon 4106 9591 4107 9574 4078 9572 4078 9587
      4092 9585